Tuvalu — DC8992 — position and weather

sailwx.info

Track history (hours):
 
Tides and Currents Weather Stations Pressure Air Temp Water Temp Dewpoint Dewpoint Depression Visibility Wind Speed Wind Dir Waves Ship Positions

Tuvalu

Last reported at 2017-Nov-19 16:44 UTC. Time now 2017-Nov-19 18:13 UTC.
Position N 28°08' W 015°26'.

Length 11 m.

Type: Sailing vessel. MMSI: 211725990.

Date/timePositionNaut miles runAvg speedWind from/ knotsBaromVisibWave heightAir tempDewpointWater temp
2017-Nov-19 16:44N 28°08' W 015°26'0 0.5
2017-Nov-19 16:30N 28°08' W 015°25'0 0.0
2017-Nov-18 17:08N 28°08' W 015°26'0 0.3
2017-Nov-18 16:53N 28°08' W 015°26'1 2.8
2017-Nov-18 16:30N 28°07' W 015°24'2 4.5
2017-Nov-18 16:00N 28°09' W 015°24'2 4.6
2017-Nov-18 15:28N 28°12' W 015°25'2 4.8
2017-Nov-18 14:58N 28°12' W 015°28'3 5.1
2017-Nov-18 14:28N 28°12' W 015°30'3 5.3
2017-Nov-18 13:58N 28°13' W 015°34'3 5.4
2017-Nov-18 13:26N 28°13' W 015°37'3 5.4
2017-Nov-18 12:57N 28°12' W 015°40'  
Track history (hours):
 
Tides and Currents Weather Stations Pressure Air Temp Water Temp Dewpoint Dewpoint Depression Visibility Wind Speed Wind Dir Waves Ship Positions

Tuvalu

Last reported at 2017-Nov-19 16:44 UTC. Time now 2017-Nov-19 18:13 UTC.
Position N 28°08' W 015°26'.

Length 11 m.

Type: Sailing vessel. MMSI: 211725990.

Date/timePositionNaut miles runAvg speedWind from/ knotsBaromVisibWave heightAir tempDewpointWater temp
2017-Nov-19 16:44N 28°08' W 015°26'0 0.5
2017-Nov-19 16:30N 28°08' W 015°25'0 0.0
2017-Nov-18 17:08N 28°08' W 015°26'0 0.3
2017-Nov-18 16:53N 28°08' W 015°26'1 2.8
2017-Nov-18 16:30N 28°07' W 015°24'2 4.5
2017-Nov-18 16:00N 28°09' W 015°24'2 4.6
2017-Nov-18 15:28N 28°12' W 015°25'2 4.8
2017-Nov-18 14:58N 28°12' W 015°28'3 5.1
2017-Nov-18 14:28N 28°12' W 015°30'3 5.3
2017-Nov-18 13:58N 28°13' W 015°34'3 5.4
2017-Nov-18 13:26N 28°13' W 015°37'3 5.4
2017-Nov-18 12:57N 28°12' W 015°40'  

Dump ship's entire track history